createdAt,value
2023-04-17T00:00:21.710Z,56.00
2023-04-17T00:04:11.053Z,56.20
2023-04-17T00:11:08.556Z,65.70
2023-04-17T00:14:35.920Z,60.30
2023-04-17T00:18:02.860Z,65.50
2023-04-17T00:21:31.936Z,59.20
2023-04-17T00:24:58.813Z,59.40
2023-04-17T00:28:26.414Z,54.50
2023-04-17T00:31:53.268Z,58.30
2023-04-17T00:35:20.481Z,54.00
2023-04-17T00:38:47.541Z,50.70
2023-04-17T00:42:14.416Z,54.50
2023-04-17T00:45:42.502Z,55.10
2023-04-17T00:49:09.792Z,48.70
2023-04-17T00:52:37.081Z,56.50
2023-04-17T00:56:07.052Z,58.20
2023-04-17T00:59:35.461Z,51.80
2023-04-17T01:03:02.924Z,52.30
2023-04-17T01:06:30.250Z,54.50
2023-04-17T01:09:57.110Z,51.50
2023-04-17T01:13:23.957Z,61.60
2023-04-17T01:16:51.074Z,58.70
2023-04-17T01:20:18.281Z,54.70
2023-04-17T01:23:52.208Z,55.10
2023-04-17T01:27:22.618Z,51.30
2023-04-17T01:30:49.728Z,51.10
2023-04-17T01:34:16.735Z,51.10
2023-04-17T01:37:43.628Z,54.70
2023-04-17T01:41:10.890Z,64.90
2023-04-17T01:44:38.969Z,54.10
2023-04-17T01:48:06.591Z,65.80
2023-04-17T01:51:33.679Z,56.40
2023-04-17T01:55:00.696Z,63.60
2023-04-17T01:58:27.571Z,60.40
2023-04-17T02:01:54.993Z,67.40
2023-04-17T02:05:22.156Z,62.70
2023-04-17T02:08:49.045Z,63.00
2023-04-17T02:12:15.956Z,65.50
2023-04-17T02:15:43.439Z,68.00
2023-04-17T02:19:10.663Z,63.30
2023-04-17T02:22:37.700Z,70.80
2023-04-17T02:26:04.923Z,73.50
2023-04-17T02:29:31.873Z,67.00
2023-04-17T02:32:59.418Z,70.90
2023-04-17T02:36:26.412Z,59.70
2023-04-17T02:39:53.520Z,61.10
2023-04-17T02:43:20.487Z,71.30
2023-04-17T02:46:47.728Z,77.50
2023-04-17T02:50:15.949Z,67.20
2023-04-17T02:54:09.138Z,69.70
2023-04-17T02:57:35.986Z,69.50
2023-04-17T03:01:06.635Z,70.90
2023-04-17T03:04:36.393Z,80.20
2023-04-17T03:08:04.133Z,75.50
2023-04-17T03:11:34.568Z,76.90
2023-04-17T03:15:02.414Z,79.00
2023-04-17T03:18:30.316Z,76.90
2023-04-17T03:21:57.771Z,73.90
2023-04-17T03:25:24.760Z,101.70
2023-04-17T03:28:54.499Z,76.10
2023-04-17T03:32:21.713Z,77.70
2023-04-17T03:35:49.772Z,79.40
2023-04-17T03:39:17.071Z,73.50
2023-04-17T03:42:44.534Z,82.10
2023-04-17T03:46:12.115Z,84.10
2023-04-17T03:49:39.506Z,80.50
2023-04-17T03:53:06.625Z,74.30
2023-04-17T03:56:33.541Z,75.20
2023-04-17T04:00:00.919Z,78.30
2023-04-17T04:03:34.974Z,75.50
2023-04-17T04:07:03.722Z,71.50
2023-04-17T04:10:32.515Z,73.90
2023-04-17T04:13:59.760Z,71.60
2023-04-17T04:17:28.186Z,64.90
2023-04-17T04:20:55.486Z,63.40
2023-04-17T04:24:33.995Z,61.40
2023-04-17T04:28:03.181Z,67.10
2023-04-17T04:31:31.433Z,63.70
2023-04-17T04:35:02.171Z,62.50
2023-04-17T04:38:32.447Z,64.40
2023-04-17T04:42:10.009Z,57.40
2023-04-17T04:46:10.508Z,56.70
2023-04-17T04:49:41.116Z,61.20
2023-04-17T04:53:09.080Z,60.90
2023-04-17T04:56:45.119Z,65.90
2023-04-17T05:03:46.618Z,63.00
2023-04-17T05:07:18.847Z,59.10
2023-04-17T05:10:46.574Z,68.80
2023-04-17T05:14:14.238Z,62.20
2023-04-17T05:17:41.772Z,68.70
2023-04-17T05:21:10.098Z,62.80
2023-04-17T05:24:38.588Z,62.40
2023-04-17T05:28:05.942Z,66.40
2023-04-17T05:31:33.056Z,64.20
2023-04-17T05:35:01.659Z,60.70
2023-04-17T05:38:28.931Z,65.10
2023-04-17T05:41:56.561Z,56.50
2023-04-17T05:45:25.580Z,70.20
2023-04-17T05:48:53.104Z,66.60
2023-04-17T05:52:20.968Z,67.60
2023-04-17T05:55:48.714Z,67.50
2023-04-17T05:59:16.298Z,71.30
2023-04-17T06:02:45.041Z,62.70
2023-04-17T06:06:18.062Z,81.90
2023-04-17T06:09:46.318Z,68.30
2023-04-17T06:13:14.062Z,59.80
2023-04-17T06:16:44.421Z,65.00
2023-04-17T06:20:13.197Z,85.80
2023-04-17T06:23:40.147Z,79.90
2023-04-17T06:27:08.270Z,102.40
2023-04-17T06:30:35.706Z,83.20
2023-04-17T06:34:03.095Z,72.30
2023-04-17T06:37:32.693Z,71.50
2023-04-17T06:40:59.748Z,71.30
2023-04-17T06:44:27.203Z,79.80
2023-04-17T06:47:54.866Z,74.30
2023-04-17T06:51:22.354Z,65.70
2023-04-17T06:54:49.330Z,59.80
2023-04-17T06:58:16.318Z,77.50
2023-04-17T07:01:43.263Z,60.90
2023-04-17T07:05:11.994Z,75.70
2023-04-17T07:08:39.086Z,72.90
2023-04-17T07:12:06.326Z,64.90
2023-04-17T07:15:33.751Z,67.80
2023-04-17T07:19:00.845Z,66.30
2023-04-17T07:22:28.415Z,56.70
2023-04-17T07:25:55.461Z,62.10
2023-04-17T07:29:22.395Z,61.40
2023-04-17T07:32:49.704Z,54.90
2023-04-17T07:36:17.192Z,68.50
2023-04-17T07:39:45.059Z,69.20
2023-04-17T07:43:11.868Z,58.90
2023-04-17T07:46:38.920Z,62.20
2023-04-17T07:50:06.615Z,58.40
2023-04-17T07:53:35.960Z,63.10
2023-04-17T07:57:03.567Z,57.40
2023-04-17T08:00:30.531Z,54.60
2023-04-17T08:03:58.344Z,57.70
2023-04-17T08:07:26.051Z,54.40
2023-04-17T08:10:53.365Z,57.40
2023-04-17T08:14:20.510Z,49.40
2023-04-17T08:17:47.705Z,49.80
2023-04-17T08:21:14.921Z,55.80
2023-04-17T08:24:42.607Z,52.00
2023-04-17T08:28:09.601Z,45.10
2023-04-17T08:31:36.960Z,47.40
2023-04-17T08:35:04.123Z,50.20
2023-04-17T08:39:25.673Z,47.90
2023-04-17T08:43:29.663Z,46.00
2023-04-17T08:46:59.360Z,40.90
2023-04-17T08:50:26.345Z,43.20
2023-04-17T08:53:53.308Z,41.60
2023-04-17T08:57:20.485Z,44.10
2023-04-17T09:00:47.878Z,39.40
2023-04-17T09:04:41.856Z,40.00
2023-04-17T09:08:14.427Z,42.40
2023-04-17T09:11:41.309Z,38.80
2023-04-17T09:15:17.967Z,37.00
2023-04-17T09:18:46.424Z,39.30
2023-04-17T09:22:23.949Z,37.10
2023-04-17T09:26:09.072Z,38.70
2023-04-17T09:29:55.734Z,38.90
2023-04-17T09:33:22.395Z,38.20
2023-04-17T09:36:55.002Z,33.40
2023-04-17T09:40:23.502Z,35.90
2023-04-17T09:43:53.714Z,34.90
2023-04-17T09:47:21.080Z,34.90
2023-04-17T09:50:48.814Z,32.50
2023-04-17T09:54:17.486Z,35.90
2023-04-17T09:57:45.399Z,37.00
2023-04-17T10:01:13.977Z,34.70
2023-04-17T10:04:42.644Z,38.00
2023-04-17T10:08:10.414Z,30.10
2023-04-17T10:11:41.917Z,34.00
2023-04-17T10:15:14.544Z,33.30
2023-04-17T10:18:41.723Z,29.00
2023-04-17T10:22:34.182Z,29.70
2023-04-17T10:26:46.040Z,33.10
2023-04-17T10:30:17.702Z,30.10
2023-04-17T10:33:52.792Z,29.70
2023-04-17T10:37:22.779Z,32.00
2023-04-17T10:40:53.240Z,33.60
2023-04-17T10:44:22.045Z,26.20
2023-04-17T10:48:01.000Z,27.00
2023-04-17T10:51:44.679Z,26.40
2023-04-17T10:55:16.206Z,28.70
2023-04-17T10:58:59.454Z,24.80
2023-04-17T11:02:37.367Z,27.00
2023-04-17T11:06:06.388Z,26.30
2023-04-17T11:09:33.251Z,23.50
2023-04-17T11:13:00.128Z,25.10
2023-04-17T11:16:27.188Z,24.90
2023-04-17T11:19:54.636Z,24.80
2023-04-17T11:23:21.743Z,24.10
2023-04-17T11:26:50.030Z,24.20
2023-04-17T11:30:27.258Z,25.30
2023-04-17T11:33:54.103Z,27.30
2023-04-17T11:37:20.911Z,24.80
2023-04-17T11:40:51.257Z,23.90
2023-04-17T11:44:20.226Z,28.80
2023-04-17T11:47:49.693Z,28.80
2023-04-17T11:51:20.519Z,29.50
2023-04-17T11:54:48.304Z,29.40
2023-04-17T11:58:16.089Z,25.60
2023-04-17T12:01:54.159Z,24.90
2023-04-17T12:05:22.091Z,25.00
2023-04-17T12:08:51.197Z,21.40
2023-04-17T12:12:18.202Z,18.80
2023-04-17T12:15:46.016Z,21.30
2023-04-17T12:19:16.773Z,20.20
2023-04-17T12:22:44.435Z,20.60
2023-04-17T12:26:11.931Z,17.60
2023-04-17T12:29:44.467Z,18.10
2023-04-17T12:33:12.687Z,18.30
2023-04-17T12:36:39.771Z,16.80
2023-04-17T12:40:10.861Z,18.00
2023-04-17T12:43:38.454Z,18.20
2023-04-17T12:47:05.644Z,15.60
2023-04-17T12:50:32.797Z,32.90
2023-04-17T12:54:00.018Z,19.40
2023-04-17T12:57:27.512Z,25.60
2023-04-17T13:00:54.616Z,21.50
2023-04-17T13:04:21.800Z,16.10
2023-04-17T13:07:48.911Z,16.70
2023-04-17T13:11:16.339Z,19.50
2023-04-17T13:14:44.286Z,17.50
2023-04-17T13:18:11.190Z,17.70
2023-04-17T13:21:38.112Z,16.30
2023-04-17T13:25:06.096Z,16.50
2023-04-17T13:28:33.355Z,17.40
2023-04-17T13:32:01.270Z,16.30
2023-04-17T13:35:28.198Z,13.90
2023-04-17T13:38:55.194Z,13.50
2023-04-17T13:42:22.764Z,13.70
2023-04-17T13:45:52.701Z,11.80
2023-04-17T13:49:21.548Z,13.50
2023-04-17T13:52:48.514Z,12.50
2023-04-17T13:56:15.840Z,17.30
2023-04-17T13:59:42.934Z,12.20
2023-04-17T14:03:09.886Z,11.40
2023-04-17T14:06:37.061Z,18.30
2023-04-17T14:10:04.214Z,12.90
2023-04-17T14:13:31.328Z,14.20
2023-04-17T14:16:58.525Z,10.90
2023-04-17T14:20:25.519Z,16.00
2023-04-17T14:23:52.483Z,14.10
2023-04-17T14:27:19.424Z,11.70
2023-04-17T14:30:46.721Z,24.80
2023-04-17T14:34:15.305Z,11.00
2023-04-17T14:37:43.930Z,60.20
2023-04-17T14:41:14.003Z,17.00
2023-04-17T14:44:43.773Z,16.90
2023-04-17T14:51:36.962Z,14.30
2023-04-17T14:55:07.206Z,10.70
2023-04-17T14:58:34.353Z,15.00
2023-04-17T15:02:01.777Z,18.40
2023-04-17T15:05:29.033Z,15.20
2023-04-17T15:08:56.430Z,15.10
2023-04-17T15:12:23.637Z,13.70
2023-04-17T15:15:50.808Z,13.50
2023-04-17T15:19:18.007Z,16.60
2023-04-17T15:22:45.731Z,13.40
2023-04-17T15:26:13.304Z,17.60
2023-04-17T15:29:41.209Z,11.00
2023-04-17T15:33:09.999Z,16.40
2023-04-17T15:36:37.475Z,13.20
2023-04-17T15:40:04.508Z,15.40
2023-04-17T15:43:31.652Z,11.90
2023-04-17T15:46:58.693Z,13.10
2023-04-17T15:50:25.726Z,11.30
2023-04-17T15:53:52.863Z,11.70
2023-04-17T15:57:19.791Z,11.20
2023-04-17T16:00:46.908Z,11.30
2023-04-17T16:04:13.911Z,11.50
2023-04-17T16:07:40.791Z,11.50
2023-04-17T16:11:08.387Z,13.40
2023-04-17T16:14:35.307Z,8.70
2023-04-17T16:18:02.335Z,8.70
2023-04-17T16:21:29.552Z,9.60
2023-04-17T16:24:56.344Z,13.40
2023-04-17T16:28:24.481Z,12.60
2023-04-17T16:31:51.556Z,10.30
2023-04-17T16:35:18.775Z,11.80
2023-04-17T16:38:46.450Z,11.90
2023-04-17T16:42:14.596Z,10.80
2023-04-17T16:45:42.174Z,12.50
2023-04-17T16:49:12.802Z,17.30
2023-04-17T16:52:41.146Z,10.40
2023-04-17T16:56:11.144Z,8.50
2023-04-17T16:59:39.365Z,8.50
2023-04-17T17:03:08.126Z,9.00
2023-04-17T17:06:36.333Z,7.70
2023-04-17T17:10:05.851Z,8.30
2023-04-17T17:17:02.220Z,6.50
2023-04-17T17:20:32.216Z,7.90
2023-04-17T17:24:01.538Z,15.50
2023-04-17T17:27:28.986Z,14.90
2023-04-17T17:31:02.985Z,12.00
2023-04-17T17:34:33.104Z,13.40
2023-04-17T17:38:00.954Z,16.90
2023-04-17T17:41:30.486Z,8.80
2023-04-17T17:45:01.154Z,9.40
2023-04-17T17:48:35.466Z,12.30
2023-04-17T17:52:05.540Z,14.40
2023-04-17T17:55:37.984Z,10.50
2023-04-17T17:59:07.882Z,12.30
2023-04-17T18:02:36.538Z,13.70
2023-04-17T18:09:32.965Z,10.80
2023-04-17T18:13:00.749Z,12.80
2023-04-17T18:16:31.775Z,10.30
2023-04-17T18:20:00.180Z,14.90
2023-04-17T18:23:28.515Z,20.30
2023-04-17T18:26:55.921Z,14.00
2023-04-17T18:30:23.421Z,15.70
2023-04-17T18:33:51.029Z,10.20
2023-04-17T18:37:18.334Z,12.10
2023-04-17T18:40:45.767Z,13.60
2023-04-17T18:44:13.696Z,11.60
2023-04-17T18:47:42.555Z,13.50
2023-04-17T18:51:14.559Z,13.30
2023-04-17T18:54:42.408Z,18.00
2023-04-17T18:58:09.614Z,15.80
2023-04-17T19:01:36.821Z,15.00
2023-04-17T19:05:04.553Z,12.90
2023-04-17T19:08:32.255Z,13.50
2023-04-17T19:12:00.589Z,14.20
2023-04-17T19:15:28.446Z,13.10
2023-04-17T19:18:56.711Z,18.50
2023-04-17T19:22:24.632Z,14.40
2023-04-17T19:25:55.206Z,17.40
2023-04-17T19:29:23.851Z,16.30
2023-04-17T19:32:52.633Z,19.00
2023-04-17T19:36:20.333Z,19.40
2023-04-17T19:39:48.546Z,15.20
2023-04-17T19:43:15.765Z,17.10
2023-04-17T19:46:43.892Z,17.90
2023-04-17T19:50:12.362Z,21.80
2023-04-17T19:53:40.914Z,16.80
2023-04-17T19:57:07.932Z,21.80
2023-04-17T20:00:34.990Z,17.10
2023-04-17T20:04:02.142Z,20.80
2023-04-17T20:07:29.344Z,18.10
2023-04-17T20:10:56.475Z,18.30
2023-04-17T20:14:25.022Z,16.00
2023-04-17T20:17:52.288Z,19.60
2023-04-17T20:21:19.759Z,20.60
2023-04-17T20:24:50.659Z,20.40
2023-04-17T20:28:17.582Z,20.20
2023-04-17T20:31:44.305Z,19.30
2023-04-17T20:35:12.564Z,19.60
2023-04-17T20:38:39.548Z,20.00
2023-04-17T20:42:06.617Z,20.40
2023-04-17T20:45:33.620Z,12.50
2023-04-17T20:49:00.939Z,18.50
2023-04-17T20:52:28.261Z,21.00
2023-04-17T20:55:57.832Z,21.40
2023-04-17T20:59:24.964Z,27.40
2023-04-17T21:02:52.009Z,18.70
2023-04-17T21:06:21.112Z,19.20
2023-04-17T21:09:48.451Z,20.70
2023-04-17T21:13:15.407Z,20.20
2023-04-17T21:16:44.495Z,23.30
2023-04-17T21:20:13.145Z,19.00
2023-04-17T21:23:41.104Z,20.60
2023-04-17T21:27:08.340Z,21.00
2023-04-17T21:30:36.903Z,20.80
2023-04-17T21:34:04.290Z,20.70
2023-04-17T21:37:31.358Z,22.70
2023-04-17T21:40:58.793Z,23.40
2023-04-17T21:44:25.772Z,22.20
2023-04-17T21:47:53.790Z,24.60
2023-04-17T21:51:23.523Z,21.70
2023-04-17T21:54:50.911Z,20.90
2023-04-17T21:58:18.492Z,21.60
2023-04-17T22:01:45.667Z,24.80
2023-04-17T22:05:12.640Z,20.20
2023-04-17T22:08:39.464Z,24.00
2023-04-17T22:12:14.407Z,24.00
2023-04-17T22:15:41.659Z,23.70
2023-04-17T22:19:08.782Z,23.90
2023-04-17T22:22:52.766Z,19.90
2023-04-17T22:26:37.224Z,20.80
2023-04-17T22:30:56.186Z,19.60
2023-04-17T22:34:59.426Z,21.10
2023-04-17T22:38:43.712Z,23.00
2023-04-17T22:42:10.652Z,17.60
2023-04-17T22:45:56.420Z,20.60
2023-04-17T22:49:24.169Z,16.00
2023-04-17T22:52:50.960Z,17.70
2023-04-17T22:56:17.601Z,23.60
2023-04-17T22:59:44.220Z,19.50
2023-04-17T23:03:11.256Z,13.40
2023-04-17T23:06:38.218Z,18.10
2023-04-17T23:10:24.045Z,15.80
2023-04-17T23:13:50.869Z,17.60
2023-04-17T23:17:17.920Z,20.20
2023-04-17T23:20:44.790Z,20.00
2023-04-17T23:24:12.303Z,16.10
2023-04-17T23:27:39.606Z,18.10
2023-04-17T23:31:08.358Z,20.40
2023-04-17T23:34:35.469Z,17.90
2023-04-17T23:38:02.285Z,18.10
2023-04-17T23:41:29.814Z,18.10
2023-04-17T23:44:56.933Z,18.20
2023-04-17T23:48:23.848Z,18.90
2023-04-17T23:51:50.655Z,17.70
2023-04-17T23:55:17.654Z,19.30
2023-04-17T23:58:44.499Z,19.30
